sensor_id;sensor_type;location;lat;lon;timestamp;pressure;altitude;pressure_sealevel;temperature;humidity
61506;BME280;47366;51.916;4.574;2023-06-22T00:03:09;102034.44;;;19.78;67.00
61506;BME280;47366;51.916;4.574;2023-06-22T00:05:35;102032.97;;;19.74;68.02
61506;BME280;47366;51.916;4.574;2023-06-22T00:08:04;102028.94;;;19.67;67.57
61506;BME280;47366;51.916;4.574;2023-06-22T00:10:32;102026.69;;;19.61;67.51
61506;BME280;47366;51.916;4.574;2023-06-22T00:12:58;102028.94;;;19.56;68.19
61506;BME280;47366;51.916;4.574;2023-06-22T00:15:23;102020.81;;;19.54;68.44
61506;BME280;47366;51.916;4.574;2023-06-22T00:17:49;102025.16;;;19.57;67.72
61506;BME280;47366;51.916;4.574;2023-06-22T00:20:15;102024.44;;;19.55;68.13
61506;BME280;47366;51.916;4.574;2023-06-22T00:22:42;102025.16;;;19.57;68.19
61506;BME280;47366;51.916;4.574;2023-06-22T00:25:08;102017.69;;;19.59;68.04
61506;BME280;47366;51.916;4.574;2023-06-22T00:27:34;102007.56;;;19.59;67.73
61506;BME280;47366;51.916;4.574;2023-06-22T00:30:00;102008.81;;;19.55;68.17
61506;BME280;47366;51.916;4.574;2023-06-22T00:32:25;101989.69;;;19.53;68.02
61506;BME280;47366;51.916;4.574;2023-06-22T00:34:50;101997.06;;;19.53;68.09
61506;BME280;47366;51.916;4.574;2023-06-22T00:37:17;101991.84;;;19.50;67.81
61506;BME280;47366;51.916;4.574;2023-06-22T00:39:43;101989.31;;;19.47;68.02
61506;BME280;47366;51.916;4.574;2023-06-22T00:42:08;102001.94;;;19.49;68.27
61506;BME280;47366;51.916;4.574;2023-06-22T00:44:35;101996.69;;;19.46;68.07
61506;BME280;47366;51.916;4.574;2023-06-22T00:47:00;101996.94;;;19.43;69.15
61506;BME280;47366;51.916;4.574;2023-06-22T00:49:25;101995.31;;;19.41;68.20
61506;BME280;47366;51.916;4.574;2023-06-22T00:51:52;101988.22;;;19.38;68.50
61506;BME280;47366;51.916;4.574;2023-06-22T00:54:17;101992.69;;;19.39;68.45
61506;BME280;47366;51.916;4.574;2023-06-22T00:56:56;101994.47;;;19.40;69.15
61506;BME280;47366;51.916;4.574;2023-06-22T00:59:23;101992.44;;;19.31;68.87
61506;BME280;47366;51.916;4.574;2023-06-22T01:01:49;101988.06;;;19.28;68.46
61506;BME280;47366;51.916;4.574;2023-06-22T01:04:15;101982.69;;;19.27;69.74
61506;BME280;47366;51.916;4.574;2023-06-22T01:09:47;101988.94;;;19.29;68.82
61506;BME280;47366;51.916;4.574;2023-06-22T01:12:15;101983.94;;;19.23;69.27
61506;BME280;47366;51.916;4.574;2023-06-22T01:14:47;101986.81;;;19.21;69.49
61506;BME280;47366;51.916;4.574;2023-06-22T01:17:19;101980.19;;;19.24;69.04
61506;BME280;47366;51.916;4.574;2023-06-22T01:19:46;101993.94;;;19.24;69.40
61506;BME280;47366;51.916;4.574;2023-06-22T01:22:15;101973.56;;;19.15;69.59
61506;BME280;47366;51.916;4.574;2023-06-22T01:24:48;101998.03;;;19.18;69.57
61506;BME280;47366;51.916;4.574;2023-06-22T01:27:33;101993.66;;;19.16;70.49
61506;BME280;47366;51.916;4.574;2023-06-22T01:30:01;101989.19;;;19.15;69.88
61506;BME280;47366;51.916;4.574;2023-06-22T01:32:33;102002.25;;;19.11;70.34
61506;BME280;47366;51.916;4.574;2023-06-22T01:35:00;101994.38;;;19.06;71.32
61506;BME280;47366;51.916;4.574;2023-06-22T01:37:27;101990.91;;;19.04;70.37
61506;BME280;47366;51.916;4.574;2023-06-22T01:39:54;101984.78;;;19.01;70.13
61506;BME280;47366;51.916;4.574;2023-06-22T01:42:21;101997.84;;;18.97;70.67
61506;BME280;47366;51.916;4.574;2023-06-22T01:44:48;101994.75;;;18.91;70.77
61506;BME280;47366;51.916;4.574;2023-06-22T01:47:14;101986.72;;;18.87;71.30
61506;BME280;47366;51.916;4.574;2023-06-22T01:49:40;101982.50;;;18.83;71.00
61506;BME280;47366;51.916;4.574;2023-06-22T01:52:06;101992.47;;;18.84;70.95
61506;BME280;47366;51.916;4.574;2023-06-22T01:54:32;101984.72;;;18.78;71.54
61506;BME280;47366;51.916;4.574;2023-06-22T01:56:58;101991.09;;;18.79;71.40
61506;BME280;47366;51.916;4.574;2023-06-22T01:59:32;101980.44;;;18.74;72.07
61506;BME280;47366;51.916;4.574;2023-06-22T02:02:06;101985.78;;;18.76;72.14
61506;BME280;47366;51.916;4.574;2023-06-22T02:04:38;101989.03;;;18.70;72.30
61506;BME280;47366;51.916;4.574;2023-06-22T02:07:12;101978.66;;;18.62;73.04
61506;BME280;47366;51.916;4.574;2023-06-22T02:09:40;101987.50;;;18.65;72.44
61506;BME280;47366;51.916;4.574;2023-06-22T02:12:08;101982.16;;;18.64;72.32
61506;BME280;47366;51.916;4.574;2023-06-22T02:14:36;101976.66;;;18.64;72.80
61506;BME280;47366;51.916;4.574;2023-06-22T02:17:02;101977.75;;;18.61;71.97
61506;BME280;47366;51.916;4.574;2023-06-22T02:19:30;101978.84;;;18.59;73.27
61506;BME280;47366;51.916;4.574;2023-06-22T02:21:58;101980.97;;;18.55;72.78
61506;BME280;47366;51.916;4.574;2023-06-22T02:24:23;101963.25;;;18.48;73.01
61506;BME280;47366;51.916;4.574;2023-06-22T02:26:49;101954.16;;;18.48;72.91
61506;BME280;47366;51.916;4.574;2023-06-22T02:29:14;101960.16;;;18.53;72.60
61506;BME280;47366;51.916;4.574;2023-06-22T02:31:40;101955.63;;;18.52;72.93
61506;BME280;47366;51.916;4.574;2023-06-22T02:34:05;101959.38;;;18.51;73.70
61506;BME280;47366;51.916;4.574;2023-06-22T02:36:30;101965.63;;;18.53;73.32
61506;BME280;47366;51.916;4.574;2023-06-22T02:38:58;101968.63;;;18.50;74.05
61506;BME280;47366;51.916;4.574;2023-06-22T02:41:27;101961.38;;;18.49;73.49
61506;BME280;47366;51.916;4.574;2023-06-22T02:43:52;101970.59;;;18.48;73.52
61506;BME280;47366;51.916;4.574;2023-06-22T02:46:17;101960.97;;;18.42;73.80
61506;BME280;47366;51.916;4.574;2023-06-22T02:48:43;101968.22;;;18.43;74.73
61506;BME280;47366;51.916;4.574;2023-06-22T02:51:08;101963.84;;;18.40;74.36
61506;BME280;47366;51.916;4.574;2023-06-22T02:53:34;101972.06;;;18.40;74.41
61506;BME280;47366;51.916;4.574;2023-06-22T02:56:02;101969.44;;;18.39;74.46
61506;BME280;47366;51.916;4.574;2023-06-22T02:58:30;101987.00;;;18.36;74.83
61506;BME280;47366;51.916;4.574;2023-06-22T03:00:55;101983.59;;;18.33;74.94
61506;BME280;47366;51.916;4.574;2023-06-22T03:03:21;101978.38;;;18.30;75.01
61506;BME280;47366;51.916;4.574;2023-06-22T03:05:46;101988.56;;;18.28;74.92
61506;BME280;47366;51.916;4.574;2023-06-22T03:08:11;101984.34;;;18.23;75.51
61506;BME280;47366;51.916;4.574;2023-06-22T03:10:37;101979.31;;;18.17;75.55
61506;BME280;47366;51.916;4.574;2023-06-22T03:13:02;101967.97;;;18.22;75.66
61506;BME280;47366;51.916;4.574;2023-06-22T03:15:28;101961.09;;;18.16;75.52
61506;BME280;47366;51.916;4.574;2023-06-22T03:17:55;101958.56;;;18.13;75.44
61506;BME280;47366;51.916;4.574;2023-06-22T03:20:20;101953.75;;;18.17;75.75
61506;BME280;47366;51.916;4.574;2023-06-22T03:22:46;101943.66;;;18.17;76.11
61506;BME280;47366;51.916;4.574;2023-06-22T03:25:11;101953.75;;;18.17;76.19
61506;BME280;47366;51.916;4.574;2023-06-22T03:27:43;101935.41;;;18.17;75.77
61506;BME280;47366;51.916;4.574;2023-06-22T03:30:11;101940.66;;;18.20;75.76
61506;BME280;47366;51.916;4.574;2023-06-22T03:32:37;101949.41;;;18.25;76.79
61506;BME280;47366;51.916;4.574;2023-06-22T03:35:02;101936.03;;;18.21;76.10
61506;BME280;47366;51.916;4.574;2023-06-22T03:37:28;101938.69;;;18.22;75.61
61506;BME280;47366;51.916;4.574;2023-06-22T03:39:53;101932.31;;;18.22;76.30
61506;BME280;47366;51.916;4.574;2023-06-22T03:42:18;101938.44;;;18.25;76.29
61506;BME280;47366;51.916;4.574;2023-06-22T03:44:44;101939.34;;;18.26;76.94
61506;BME280;47366;51.916;4.574;2023-06-22T03:47:09;101932.44;;;18.20;76.27
61506;BME280;47366;51.916;4.574;2023-06-22T03:49:35;101928.81;;;18.20;76.98
61506;BME280;47366;51.916;4.574;2023-06-22T03:52:02;101934.97;;;18.23;75.97
61506;BME280;47366;51.916;4.574;2023-06-22T03:54:28;101935.19;;;18.20;76.49
61506;BME280;47366;51.916;4.574;2023-06-22T03:56:53;101930.44;;;18.22;76.58
61506;BME280;47366;51.916;4.574;2023-06-22T03:59:19;101921.59;;;18.19;76.85
61506;BME280;47366;51.916;4.574;2023-06-22T04:01:44;101925.72;;;18.24;76.30
61506;BME280;47366;51.916;4.574;2023-06-22T04:04:10;101929.69;;;18.20;76.91
61506;BME280;47366;51.916;4.574;2023-06-22T04:06:35;101929.34;;;18.25;77.50
61506;BME280;47366;51.916;4.574;2023-06-22T04:09:00;101924.50;;;18.29;77.46
61506;BME280;47366;51.916;4.574;2023-06-22T04:11:26;101916.50;;;18.25;76.50
61506;BME280;47366;51.916;4.574;2023-06-22T04:13:51;101922.53;;;18.31;76.69
61506;BME280;47366;51.916;4.574;2023-06-22T04:16:17;101914.91;;;18.34;75.98
61506;BME280;47366;51.916;4.574;2023-06-22T04:18:42;101929.28;;;18.38;76.47
61506;BME280;47366;51.916;4.574;2023-06-22T04:21:08;101919.28;;;18.37;76.17
61506;BME280;47366;51.916;4.574;2023-06-22T04:23:33;101922.78;;;18.39;77.17
61506;BME280;47366;51.916;4.574;2023-06-22T04:25:58;101935.28;;;18.43;76.66
61506;BME280;47366;51.916;4.574;2023-06-22T04:28:24;101936.91;;;18.45;75.78
61506;BME280;47366;51.916;4.574;2023-06-22T04:30:49;101942.25;;;18.47;76.11
61506;BME280;47366;51.916;4.574;2023-06-22T04:33:16;101934.28;;;18.44;75.92
61506;BME280;47366;51.916;4.574;2023-06-22T04:35:44;101935.81;;;18.48;76.48
61506;BME280;47366;51.916;4.574;2023-06-22T04:38:12;101940.94;;;18.53;76.26
61506;BME280;47366;51.916;4.574;2023-06-22T04:40:39;101945.41;;;18.54;76.05
61506;BME280;47366;51.916;4.574;2023-06-22T04:43:04;101946.94;;;18.58;76.15
61506;BME280;47366;51.916;4.574;2023-06-22T04:45:32;101950.69;;;18.57;76.05
61506;BME280;47366;51.916;4.574;2023-06-22T04:47:58;101944.94;;;18.60;76.33
61506;BME280;47366;51.916;4.574;2023-06-22T04:50:23;101948.09;;;18.66;76.05
61506;BME280;47366;51.916;4.574;2023-06-22T04:52:49;101952.56;;;18.67;75.65
61506;BME280;47366;51.916;4.574;2023-06-22T04:55:15;101949.84;;;18.67;76.09
61506;BME280;47366;51.916;4.574;2023-06-22T04:57:45;101947.19;;;18.66;75.94
61506;BME280;47366;51.916;4.574;2023-06-22T05:00:15;101944.34;;;18.67;76.54
61506;BME280;47366;51.916;4.574;2023-06-22T05:02:43;101959.44;;;18.73;75.51
61506;BME280;47366;51.916;4.574;2023-06-22T05:05:09;101949.47;;;18.72;76.00
61506;BME280;47366;51.916;4.574;2023-06-22T05:07:38;101951.78;;;18.78;75.81
61506;BME280;47366;51.916;4.574;2023-06-22T05:10:05;101941.66;;;18.79;75.58
61506;BME280;47366;51.916;4.574;2023-06-22T05:12:30;101942.06;;;18.85;75.27
61506;BME280;47366;51.916;4.574;2023-06-22T05:14:56;101942.69;;;18.89;74.65
61506;BME280;47366;51.916;4.574;2023-06-22T05:17:21;101934.94;;;18.94;75.26
61506;BME280;47366;51.916;4.574;2023-06-22T05:19:47;101939.81;;;19.02;74.83
61506;BME280;47366;51.916;4.574;2023-06-22T05:22:15;101939.47;;;19.06;74.08
61506;BME280;47366;51.916;4.574;2023-06-22T05:24:42;101936.34;;;19.11;75.05
61506;BME280;47366;51.916;4.574;2023-06-22T05:27:08;101936.59;;;19.08;74.83
61506;BME280;47366;51.916;4.574;2023-06-22T05:29:33;101936.13;;;19.14;74.91
61506;BME280;47366;51.916;4.574;2023-06-22T05:31:58;101929.50;;;19.17;74.32
61506;BME280;47366;51.916;4.574;2023-06-22T05:34:24;101931.22;;;19.18;74.57
61506;BME280;47366;51.916;4.574;2023-06-22T05:36:49;101939.00;;;19.24;75.07
61506;BME280;47366;51.916;4.574;2023-06-22T05:39:15;101928.13;;;19.22;74.51
61506;BME280;47366;51.916;4.574;2023-06-22T05:41:41;101917.38;;;19.19;75.44
61506;BME280;47366;51.916;4.574;2023-06-22T05:44:06;101940.34;;;19.29;74.34
61506;BME280;47366;51.916;4.574;2023-06-22T05:46:32;101939.72;;;19.37;74.14
61506;BME280;47366;51.916;4.574;2023-06-22T05:48:57;101934.50;;;19.45;73.77
61506;BME280;47366;51.916;4.574;2023-06-22T05:51:23;101938.47;;;19.64;73.56
61506;BME280;47366;51.916;4.574;2023-06-22T05:53:48;101938.63;;;19.73;73.98
61506;BME280;47366;51.916;4.574;2023-06-22T05:56:15;101936.97;;;19.71;73.77
61506;BME280;47366;51.916;4.574;2023-06-22T05:58:41;101942.84;;;19.78;73.22
61506;BME280;47366;51.916;4.574;2023-06-22T06:01:06;101935.72;;;19.75;74.42
61506;BME280;47366;51.916;4.574;2023-06-22T06:03:31;101937.34;;;19.78;74.27
61506;BME280;47366;51.916;4.574;2023-06-22T06:05:57;101935.47;;;19.78;73.02
61506;BME280;47366;51.916;4.574;2023-06-22T06:08:22;101935.97;;;19.83;73.91
61506;BME280;47366;51.916;4.574;2023-06-22T06:13:13;101945.69;;;19.87;73.50
61506;BME280;47366;51.916;4.574;2023-06-22T06:15:38;101937.44;;;19.87;73.57
61506;BME280;47366;51.916;4.574;2023-06-22T06:18:04;101931.84;;;19.89;73.43
61506;BME280;47366;51.916;4.574;2023-06-22T06:20:31;101932.59;;;19.91;73.40
61506;BME280;47366;51.916;4.574;2023-06-22T06:22:56;101935.44;;;20.01;72.95
61506;BME280;47366;51.916;4.574;2023-06-22T06:25:22;101929.06;;;20.00;73.08
61506;BME280;47366;51.916;4.574;2023-06-22T06:27:49;101926.16;;;20.02;73.04
61506;BME280;47366;51.916;4.574;2023-06-22T06:30:17;101927.66;;;20.06;72.93
61506;BME280;47366;51.916;4.574;2023-06-22T06:32:44;101920.75;;;20.11;72.08
61506;BME280;47366;51.916;4.574;2023-06-22T06:35:11;101908.03;;;20.10;72.35
61506;BME280;47366;51.916;4.574;2023-06-22T06:37:39;101918.09;;;20.21;72.58
61506;BME280;47366;51.916;4.574;2023-06-22T06:40:09;101911.59;;;20.22;71.61
61506;BME280;47366;51.916;4.574;2023-06-22T06:42:39;101922.56;;;20.33;71.26
61506;BME280;47366;51.916;4.574;2023-06-22T06:45:07;101918.06;;;20.32;71.69
61506;BME280;47366;51.916;4.574;2023-06-22T06:47:33;101913.28;;;20.34;71.61
61506;BME280;47366;51.916;4.574;2023-06-22T06:49:58;101911.75;;;20.42;71.15
61506;BME280;47366;51.916;4.574;2023-06-22T06:52:24;101916.00;;;20.46;71.34
61506;BME280;47366;51.916;4.574;2023-06-22T06:54:50;101917.50;;;20.50;70.90
61506;BME280;47366;51.916;4.574;2023-06-22T06:57:17;101913.94;;;20.59;70.54
61506;BME280;47366;51.916;4.574;2023-06-22T06:59:43;101898.03;;;20.63;70.32
61506;BME280;47366;51.916;4.574;2023-06-22T07:02:08;101893.41;;;20.63;70.09
61506;BME280;47366;51.916;4.574;2023-06-22T07:04:34;101889.84;;;20.72;70.11
61506;BME280;47366;51.916;4.574;2023-06-22T07:07:01;101889.91;;;20.82;69.96
61506;BME280;47366;51.916;4.574;2023-06-22T07:09:27;101899.00;;;21.04;69.17
61506;BME280;47366;51.916;4.574;2023-06-22T07:11:52;101899.28;;;21.31;68.56
61506;BME280;47366;51.916;4.574;2023-06-22T07:14:17;101888.50;;;21.49;67.60
61506;BME280;47366;51.916;4.574;2023-06-22T07:16:43;101888.53;;;21.59;67.23
61506;BME280;47366;51.916;4.574;2023-06-22T07:19:10;101887.56;;;21.70;66.80
61506;BME280;47366;51.916;4.574;2023-06-22T07:21:36;101882.34;;;21.86;66.18
61506;BME280;47366;51.916;4.574;2023-06-22T07:24:01;101887.03;;;22.05;66.63
61506;BME280;47366;51.916;4.574;2023-06-22T07:26:26;101881.06;;;22.19;65.62
61506;BME280;47366;51.916;4.574;2023-06-22T07:28:52;101881.38;;;22.26;65.70
61506;BME280;47366;51.916;4.574;2023-06-22T07:31:17;101896.34;;;22.33;65.09
61506;BME280;47366;51.916;4.574;2023-06-22T07:33:42;101883.00;;;22.38;64.52
61506;BME280;47366;51.916;4.574;2023-06-22T07:36:08;101885.31;;;22.43;62.94
61506;BME280;47366;51.916;4.574;2023-06-22T07:38:34;101888.19;;;22.51;63.36
61506;BME280;47366;51.916;4.574;2023-06-22T07:41:00;101886.16;;;22.53;63.51
61506;BME280;47366;51.916;4.574;2023-06-22T07:43:25;101883.53;;;22.52;63.40
61506;BME280;47366;51.916;4.574;2023-06-22T07:45:51;101876.56;;;22.47;63.31
61506;BME280;47366;51.916;4.574;2023-06-22T07:48:22;101883.84;;;22.48;63.61
61506;BME280;47366;51.916;4.574;2023-06-22T07:50:48;101870.19;;;22.47;62.98
61506;BME280;47366;51.916;4.574;2023-06-22T07:53:14;101867.13;;;22.60;63.19
61506;BME280;47366;51.916;4.574;2023-06-22T07:55:40;101868.25;;;22.77;63.05
61506;BME280;47366;51.916;4.574;2023-06-22T07:58:05;101860.19;;;22.83;62.42
61506;BME280;47366;51.916;4.574;2023-06-22T08:00:30;101863.53;;;22.97;62.59
61506;BME280;47366;51.916;4.574;2023-06-22T08:02:56;101863.19;;;23.09;62.04
61506;BME280;47366;51.916;4.574;2023-06-22T08:05:21;101851.41;;;23.17;60.91
61506;BME280;47366;51.916;4.574;2023-06-22T08:07:47;101859.47;;;23.28;60.44
61506;BME280;47366;51.916;4.574;2023-06-22T08:10:12;101841.25;;;23.36;59.43
61506;BME280;47366;51.916;4.574;2023-06-22T08:12:39;101843.28;;;23.43;57.53
61506;BME280;47366;51.916;4.574;2023-06-22T08:15:06;101839.41;;;23.54;58.05
61506;BME280;47366;51.916;4.574;2023-06-22T08:17:33;101834.66;;;23.64;57.80
61506;BME280;47366;51.916;4.574;2023-06-22T08:19:58;101844.97;;;23.72;57.22
61506;BME280;47366;51.916;4.574;2023-06-22T08:22:24;101841.06;;;23.92;56.80
61506;BME280;47366;51.916;4.574;2023-06-22T08:24:49;101832.53;;;24.04;56.83
61506;BME280;47366;51.916;4.574;2023-06-22T08:27:14;101835.78;;;24.17;56.63
61506;BME280;47366;51.916;4.574;2023-06-22T08:29:42;101837.41;;;24.28;56.96
61506;BME280;47366;51.916;4.574;2023-06-22T08:32:08;101829.34;;;24.34;57.50
61506;BME280;47366;51.916;4.574;2023-06-22T08:34:34;101822.19;;;24.50;57.37
61506;BME280;47366;51.916;4.574;2023-06-22T08:37:01;101828.19;;;24.63;57.19
61506;BME280;47366;51.916;4.574;2023-06-22T08:39:27;101827.97;;;24.56;57.57
61506;BME280;47366;51.916;4.574;2023-06-22T08:41:53;101823.84;;;24.43;57.83
61506;BME280;47366;51.916;4.574;2023-06-22T08:44:19;101831.47;;;24.23;58.47
61506;BME280;47366;51.916;4.574;2023-06-22T08:46:45;101836.34;;;24.03;58.68
61506;BME280;47366;51.916;4.574;2023-06-22T08:49:10;101829.28;;;23.90;59.70
61506;BME280;47366;51.916;4.574;2023-06-22T08:51:36;101833.16;;;23.80;60.07
61506;BME280;47366;51.916;4.574;2023-06-22T08:54:01;101826.91;;;23.78;60.04
61506;BME280;47366;51.916;4.574;2023-06-22T08:56:27;101821.22;;;23.79;60.50
61506;BME280;47366;51.916;4.574;2023-06-22T08:58:52;101821.94;;;23.81;60.64
61506;BME280;47366;51.916;4.574;2023-06-22T09:01:17;101821.22;;;23.79;60.54
61506;BME280;47366;51.916;4.574;2023-06-22T09:03:43;101808.56;;;23.77;60.44
61506;BME280;47366;51.916;4.574;2023-06-22T09:06:08;101811.75;;;23.82;60.93
61506;BME280;47366;51.916;4.574;2023-06-22T09:08:37;101814.50;;;23.82;60.72
61506;BME280;47366;51.916;4.574;2023-06-22T09:11:02;101812.66;;;23.90;60.63
61506;BME280;47366;51.916;4.574;2023-06-22T09:13:30;101805.06;;;23.92;61.36
61506;BME280;47366;51.916;4.574;2023-06-22T09:15:56;101811.34;;;23.94;61.26
61506;BME280;47366;51.916;4.574;2023-06-22T09:18:21;101819.31;;;23.98;61.05
61506;BME280;47366;51.916;4.574;2023-06-22T09:20:47;101811.66;;;23.91;60.99
61506;BME280;47366;51.916;4.574;2023-06-22T09:23:12;101821.88;;;23.91;61.09
61506;BME280;47366;51.916;4.574;2023-06-22T09:25:37;101810.38;;;23.86;61.20
61506;BME280;47366;51.916;4.574;2023-06-22T09:28:03;101816.31;;;23.91;61.32
61506;BME280;47366;51.916;4.574;2023-06-22T09:30:28;101814.25;;;23.93;61.66
61506;BME280;47366;51.916;4.574;2023-06-22T09:32:54;101805.25;;;23.91;62.04
61506;BME280;47366;51.916;4.574;2023-06-22T09:35:19;101806.25;;;23.90;61.56
61506;BME280;47366;51.916;4.574;2023-06-22T09:37:45;101804.22;;;23.92;61.54
61506;BME280;47366;51.916;4.574;2023-06-22T09:40:11;101803.75;;;23.97;61.74
61506;BME280;47366;51.916;4.574;2023-06-22T09:42:38;101794.47;;;23.88;62.00
61506;BME280;47366;51.916;4.574;2023-06-22T09:45:04;101803.59;;;23.98;61.83
61506;BME280;47366;51.916;4.574;2023-06-22T09:47:30;101795.81;;;24.02;61.57
61506;BME280;47366;51.916;4.574;2023-06-22T09:49:56;101788.72;;;23.99;61.83
61506;BME280;47366;51.916;4.574;2023-06-22T09:52:22;101789.75;;;23.98;61.44
61506;BME280;47366;51.916;4.574;2023-06-22T09:54:47;101789.75;;;23.98;61.36
61506;BME280;47366;51.916;4.574;2023-06-22T09:57:13;101796.31;;;23.97;61.46
61506;BME280;47366;51.916;4.574;2023-06-22T09:59:38;101801.13;;;23.95;60.83
61506;BME280;47366;51.916;4.574;2023-06-22T10:02:06;101789.34;;;23.93;61.24
61506;BME280;47366;51.916;4.574;2023-06-22T10:04:32;101793.16;;;23.92;60.68
61506;BME280;47366;51.916;4.574;2023-06-22T10:06:57;101796.78;;;23.92;61.43
61506;BME280;47366;51.916;4.574;2023-06-22T10:09:22;101797.09;;;23.89;60.94
61506;BME280;47366;51.916;4.574;2023-06-22T10:11:48;101799.31;;;23.86;60.61
61506;BME280;47366;51.916;4.574;2023-06-22T10:14:13;101792.19;;;23.83;60.98
61506;BME280;47366;51.916;4.574;2023-06-22T10:16:39;101809.50;;;23.85;61.18
61506;BME280;47366;51.916;4.574;2023-06-22T10:19:06;101803.03;;;23.77;61.21
61506;BME280;47366;51.916;4.574;2023-06-22T10:21:33;101795.03;;;23.73;61.33
61506;BME280;47366;51.916;4.574;2023-06-22T10:23:59;101797.94;;;23.72;60.92
61506;BME280;47366;51.916;4.574;2023-06-22T10:26:31;101799.59;;;23.65;60.62
61506;BME280;47366;51.916;4.574;2023-06-22T10:28:56;101797.13;;;23.62;60.06
61506;BME280;47366;51.916;4.574;2023-06-22T10:31:21;101803.56;;;23.62;60.23
61506;BME280;47366;51.916;4.574;2023-06-22T10:33:48;101803.84;;;23.59;59.52
61506;BME280;47366;51.916;4.574;2023-06-22T10:36:14;101808.44;;;23.50;59.97
61506;BME280;47366;51.916;4.574;2023-06-22T10:38:40;101794.44;;;23.52;60.07
61506;BME280;47366;51.916;4.574;2023-06-22T10:41:05;101815.69;;;23.51;60.33
61506;BME280;47366;51.916;4.574;2023-06-22T10:43:31;101814.50;;;23.54;59.92
61506;BME280;47366;51.916;4.574;2023-06-22T10:45:56;101815.09;;;23.58;60.18
61506;BME280;47366;51.916;4.574;2023-06-22T10:48:22;101806.63;;;23.59;60.12
61506;BME280;47366;51.916;4.574;2023-06-22T10:50:47;101807.34;;;23.61;59.82
61506;BME280;47366;51.916;4.574;2023-06-22T10:53:12;101805.44;;;23.62;59.41
61506;BME280;47366;51.916;4.574;2023-06-22T10:55:38;101805.28;;;23.63;59.27
61506;BME280;47366;51.916;4.574;2023-06-22T10:58:03;101804.88;;;23.58;58.67
61506;BME280;47366;51.916;4.574;2023-06-22T11:00:28;101806.31;;;23.62;59.13
61506;BME280;47366;51.916;4.574;2023-06-22T11:02:54;101802.13;;;23.58;59.50
61506;BME280;47366;51.916;4.574;2023-06-22T11:05:19;101803.84;;;23.59;59.38
61506;BME280;47366;51.916;4.574;2023-06-22T11:07:45;101805.44;;;23.62;59.22
61506;BME280;47366;51.916;4.574;2023-06-22T11:10:11;101801.78;;;23.61;59.14
61506;BME280;47366;51.916;4.574;2023-06-22T11:12:37;101806.88;;;23.66;59.65
61506;BME280;47366;51.916;4.574;2023-06-22T11:15:02;101802.19;;;23.66;59.60
61506;BME280;47366;51.916;4.574;2023-06-22T11:17:28;101799.75;;;23.63;59.60
61506;BME280;47366;51.916;4.574;2023-06-22T11:19:53;101799.03;;;23.61;59.54
61506;BME280;47366;51.916;4.574;2023-06-22T11:22:18;101794.16;;;23.55;60.12
61506;BME280;47366;51.916;4.574;2023-06-22T11:24:43;101796.91;;;23.55;60.02
61506;BME280;47366;51.916;4.574;2023-06-22T11:27:09;101807.19;;;23.63;60.85
61506;BME280;47366;51.916;4.574;2023-06-22T11:29:34;101782.75;;;23.58;60.43
61506;BME280;47366;51.916;4.574;2023-06-22T11:32:00;101782.19;;;23.54;60.10
61506;BME280;47366;51.916;4.574;2023-06-22T11:34:26;101787.44;;;23.58;60.67
61506;BME280;47366;51.916;4.574;2023-06-22T11:36:51;101760.69;;;23.48;60.85
61506;BME280;47366;51.916;4.574;2023-06-22T11:39:16;101761.56;;;23.49;60.53
61506;BME280;47366;51.916;4.574;2023-06-22T11:41:42;101768.13;;;23.48;60.37
61506;BME280;47366;51.916;4.574;2023-06-22T11:44:07;101752.16;;;23.42;60.10
61506;BME280;47366;51.916;4.574;2023-06-22T11:46:33;101757.38;;;23.45;60.65
61506;BME280;47366;51.916;4.574;2023-06-22T11:49:00;101751.13;;;23.43;60.61
61506;BME280;47366;51.916;4.574;2023-06-22T11:51:25;101745.44;;;23.44;61.15
61506;BME280;47366;51.916;4.574;2023-06-22T11:53:50;101742.69;;;23.44;60.78
61506;BME280;47366;51.916;4.574;2023-06-22T11:56:16;101743.06;;;23.49;60.93
61506;BME280;47366;51.916;4.574;2023-06-22T11:58:41;101738.72;;;23.47;61.55
61506;BME280;47366;51.916;4.574;2023-06-22T12:01:07;101741.16;;;23.50;62.51
61506;BME280;47366;51.916;4.574;2023-06-22T12:03:32;101737.72;;;23.48;61.80
61506;BME280;47366;51.916;4.574;2023-06-22T12:05:57;101739.84;;;23.54;62.07
61506;BME280;47366;51.916;4.574;2023-06-22T12:08:23;101729.97;;;23.51;62.32
61506;BME280;47366;51.916;4.574;2023-06-22T12:10:50;101731.16;;;23.49;62.67
61506;BME280;47366;51.916;4.574;2023-06-22T12:13:15;101726.94;;;23.45;62.90
61506;BME280;47366;51.916;4.574;2023-06-22T12:15:41;101727.13;;;23.43;64.35
61506;BME280;47366;51.916;4.574;2023-06-22T12:18:06;101721.75;;;23.42;64.21
61506;BME280;47366;51.916;4.574;2023-06-22T12:20:31;101728.00;;;23.44;63.93
61506;BME280;47366;51.916;4.574;2023-06-22T12:22:57;101726.00;;;23.36;64.59
61506;BME280;47366;51.916;4.574;2023-06-22T12:25:23;101729.78;;;23.35;65.01
61506;BME280;47366;51.916;4.574;2023-06-22T12:27:48;101728.34;;;23.31;65.49
61506;BME280;47366;51.916;4.574;2023-06-22T12:30:16;101722.81;;;23.31;65.14
61506;BME280;47366;51.916;4.574;2023-06-22T12:32:41;101724.72;;;23.30;65.17
61506;BME280;47366;51.916;4.574;2023-06-22T12:35:07;101714.00;;;23.27;66.66
61506;BME280;47366;51.916;4.574;2023-06-22T12:37:37;101720.56;;;23.26;66.12
61506;BME280;47366;51.916;4.574;2023-06-22T12:40:02;101725.50;;;23.23;66.77
61506;BME280;47366;51.916;4.574;2023-06-22T12:42:29;101722.34;;;23.18;66.42
61506;BME280;47366;51.916;4.574;2023-06-22T12:44:54;101722.97;;;23.11;67.62
61506;BME280;47366;51.916;4.574;2023-06-22T12:47:19;101726.63;;;23.12;67.57
61506;BME280;47366;51.916;4.574;2023-06-22T12:49:45;101724.00;;;23.10;68.23
61506;BME280;47366;51.916;4.574;2023-06-22T12:52:10;101722.00;;;23.03;68.61